Weather observations for the past three days for
Coeur d'Alene Airport - Pappy Boyington Field
Imperial (Metric)
Date Time (pdt) Wind (mph) Vis. (mi.) Weather Sky Cond. Temperature (ºF) Relative Humidity Wind Chill (°F) Heat Index (°F) Pressure Precipitation (in)
Air Dwpt 6 hour altimeter (in) sea level (mb) 1 hr 3 hr 6 hr
Max. Min.
10 04:56 Calm 10.00 Fair CLR 44.1 39.9 53.1 43 85% 30.04 1018.6
10 03:56 NE 5 10.00 Fair CLR 44.1 39.9 85% 42 30.05 1019.0
10 02:56 NE 5 10.00 Fair CLR 43 39 86% 41 30.05 1019.1
10 01:56 E 3 10.00 Fair CLR 46 39.9 79% 30.07 1019.7
10 00:56 Calm 10.00 Fair CLR 46 41 83% 30.07 1019.9
09 23:56 E 5 10.00 Fair CLR 51.1 44.1 77% 30.07 1019.5
09 22:56 NE 3 10.00 Fair CLR 53.1 44.1 70 53.1 72% 30.08 1020.0
09 21:56 SE 6 10.00 Fair CLR 57 44.1 62% 30.09 1020.2
09 20:56 SE 3 10.00 Fair CLR 63 39 41% 30.09 1020.0
09 19:56 S 5 10.00 Fair CLR 64.9 39 39% 30.07 1019.6
09 18:56 W 3 10.00 Fair CLR 68 37.9 33% 30.08 1019.7
09 17:56 Calm 10.00 Fair CLR 69.1 37 31% 30.09 1020.2
09 16:56 SW 7 10.00 Fair CLR 69.1 39 71.1 59 33% 30.1 1020.3
09 15:56 W 8 10.00 Fair CLR 70 39.9 34% 30.1 1020.4
09 14:56 Vrbl 5 10.00 Fair CLR 69.1 41 36% 30.11 1020.8
09 13:56 Vrbl 3 10.00 Fair CLR 66 39.9 39% 30.13 1021.6
09 12:56 W 6 10.00 Fair CLR 66 42.1 42% 30.15 1022.0
09 11:56 Vrbl 5 10.00 Fair CLR 64 41 43% 30.17 1022.6
09 10:56 S 7 10.00 Fair CLR 60.1 39.9 60.1 46.9 48% 30.17 1022.9
09 09:56 S 10 10.00 Fair CLR 55.9 39 53% 30.16 1022.8
09 08:56 S 13 10.00 Fair CLR 54 37 53% 30.16 1022.6
09 07:56 S 12 10.00 Fair CLR 51.1 37 59% 30.14 1022.1
09 06:56 S 13 10.00 Fair CLR 48.9 35.1 59% 44 30.13 1021.5
09 05:56 S 8 10.00 Fair CLR 46.9 34 61% 44 30.11 1020.9
09 04:56 S 7 10.00 Fair CLR 48 33.1 55 48 56% 45 30.09 1020.2
09 03:56 S 7 10.00 Fair CLR 48.9 34 56% 46 30.07 1019.5
09 02:56 S 10 10.00 Fair CLR 51.1 33.1 50% 30.04 1018.3
09 01:56 SE 9 10.00 Fair CLR 52 34 50% 30.02 1017.8
09 00:56 S 12 10.00 Fair CLR 54 36 51% 30 1017.1
08 23:56 S 9 10.00 Fair CLR 55 37 51% 29.99 1016.6
08 22:56 S 9 10.00 Fair CLR 55 37.9 68 55 53% 29.97 1016.1
08 21:56 S 7 10.00 Fair CLR 57.9 37 46% 29.97 1016.0
08 20:56 S 8 10.00 Fair CLR 60.1 36 41% 29.96 1015.7
08 19:56 S 8 10.00 Fair CLR 63 36 37% 29.96 1015.4
08 18:56 S 8 10.00 Fair CLR 64.9 36 34% 29.96 1015.5
08 17:56 S 10 10.00 Fair CLR 66 37 34% 29.96 1015.6
08 16:56 SW 16 G 20 10.00 A Few Clouds FEW070 68 37 69.1 63 32% 29.96 1015.6
08 15:56 S 8 10.00 Fair CLR 66.9 42.1 41% 29.97 1015.9
08 14:56 S 10 10.00 Fair CLR 66 42.1 42% 29.97 1016.1
08 13:56 S 14 10.00 Fair CLR 64.9 39.9 40% 29.98 1016.3
08 12:56 S 12 10.00 Fair CLR 64 39 40% 29.98 1016.3
08 11:56 S 15 10.00 Fair CLR 64 33.1 32% 29.98 1016.3
08 10:56 S 10 10.00 Fair CLR 63 37 63 48.9 38% 29.99 1016.3
08 09:56 S 8 10.00 Fair CLR 62.1 34 35% 29.99 1016.5
08 08:56 Vrbl 3 10.00 Fair CLR 60.1 37 42% 29.99 1016.4
08 07:56 S 9 10.00 Fair CLR 55.9 43 62% 29.99 1016.4
08 06:56 S 9 8.00 Fair CLR 52 45 77% 29.98 1016.2
08 05:56 SE 9 10.00 Fair CLR 50 45 83% 47 29.96 1015.6
08 04:56 SE 3 10.00 Fair CLR 48.9 44.1 60.1 48.9 83% 29.96 1015.6
08 03:56 Calm 10.00 Fair CLR 50 44.1 80% 29.96 1015.4
08 02:56 SE 5 10.00 Fair CLR 51.1 45 80% 29.95 1015.1
08 01:56 SE 7 10.00 Fair CLR 55 45 69% 29.95 1015.1
08 00:56 S 6 10.00 Fair CLR 54 45 72% 29.95 1015.2
07 23:56 S 7 10.00 Fair CLR 57.9 45 62% 29.94 1014.8
07 22:56 S 8 10.00 Fair CLR 60.1 45 72 55.9 58% 29.94 1014.9
07 21:56 Calm 10.00 Fair CLR 59 45 60% 29.95 1015.2
07 20:56 S 6 10.00 Fair CLR 64.9 45 49% 29.94 1014.7
07 19:56 SW 7 10.00 Fair CLR 64.9 45 49% 29.93 1014.3
07 18:56 SW 7 10.00 Fair CLR 70 46.9 44% 29.92 1014.0
07 17:56 W 10 10.00 Fair CLR 71.1 44.1 38% 29.93 1014.4
07 16:56 SW 6 10.00 Fair CLR 71.1 46 72 62.1 41% 29.94 1014.8
07 15:56 W 10 10.00 Fair CLR 71.1 46 41% 29.95 1015.0
07 14:56 W 12 10.00 Fair CLR 72 45 38% 29.96 1015.3
07 13:56 W 10 10.00 Fair CLR 70 46 42% 29.98 1015.9
07 12:56 Calm 10.00 Fair CLR 68 44.1 42% 29.99 1016.1
07 11:56 W 8 10.00 A Few Clouds FEW042 66 46 49% 29.99 1016.2
07 10:56 S 8 10.00 Fair CLR 62.1 45 62.1 46.9 54% 30 1016.5
07 09:56 S 12 10.00 Fair CLR 59 44.1 58% 30 1016.7
07 08:56 SE 10 10.00 Fair CLR 57 43 60% 30 1016.6
07 07:56 S 8 10.00 Fair CLR 55 43 64% 29.99 1016.4
07 06:56 S 8 10.00 Fair CLR 53.1 43 69% 29.97 1015.8
07 05:56 S 9 10.00 Fair CLR 51.1 42.1 71% 29.96 1015.2
Date Time (pdt) Wind (mph) Vis. (mi.) Weather Sky Cond. Air Dwpt Max. Min. Relative Humidity Wind Chill (°F) Heat Index (°F) altimeter (in) sea level (mb) 1 hr 3 hr 6 hr
6 hour
Temperature (ºF) Pressure Precipitation (in)